Time;durP1;ratioP1;P1;durP2;ratioP2;P2;SDS_P1;SDS_P2;PMS_P1;PMS_P2;Temp;Humidity;BMP_temperature;BMP_pressure;BME280_temperature;BME280_humidity;BME280_pressure;Samples;Min_cycle;Max_cycle;Signal;HPM_P1;HPM_P2
2021/03/14 00:00:37;;;;;;;1.75;1.42;;;;;;;5.38;64.33;99178.13;5013259;28;20063;-74
2021/03/14 00:03:07;;;;;;;2.05;1.40;;;;;;;5.28;64.88;99191.31;5013383;28;20037;-74
2021/03/14 00:05:34;;;;;;;2.40;1.27;;;;;;;5.37;64.99;99189.78;4999633;28;20029;-69
2021/03/14 00:08:00;;;;;;;3.63;1.40;;;;;;;5.32;64.74;99187.91;4995445;28;20022;-72
2021/03/14 00:10:26;;;;;;;5.35;1.25;;;;;;;5.25;65.01;99182.00;4988276;28;20613;-70
2021/03/14 00:12:52;;;;;;;3.22;1.20;;;;;;;5.30;64.98;99184.69;5000916;28;20041;-72
2021/03/14 00:15:20;;;;;;;1.45;1.05;;;;;;;5.34;64.52;99177.03;5000432;28;20038;-73
2021/03/14 00:17:46;;;;;;;3.20;1.00;;;;;;;5.32;64.89;99179.13;5001228;28;20520;-72
2021/03/14 00:20:12;;;;;;;3.33;1.10;;;;;;;5.32;64.29;99177.28;5013241;28;20092;-71
2021/03/14 00:22:37;;;;;;;2.65;1.40;;;;;;;5.29;64.92;99188.41;4998566;28;20030;-73
2021/03/14 00:25:06;;;;;;;1.80;1.10;;;;;;;5.23;64.65;99173.50;5006353;28;20503;-69
2021/03/14 00:27:31;;;;;;;3.90;1.30;;;;;;;5.27;64.29;99181.75;4998722;28;20057;-76
2021/03/14 00:29:57;;;;;;;2.08;1.60;;;;;;;5.28;64.58;99180.69;5010736;28;20057;-74
2021/03/14 00:32:23;;;;;;;2.33;1.08;;;;;;;5.25;64.54;99176.69;5006648;28;20124;-72
2021/03/14 00:34:48;;;;;;;1.75;1.00;;;;;;;5.23;64.32;99172.69;5010398;28;20104;-74
2021/03/14 00:37:14;;;;;;;2.05;0.90;;;;;;;5.21;64.61;99180.91;5003766;28;20049;-72
2021/03/14 00:39:40;;;;;;;2.67;0.98;;;;;;;5.29;64.13;99180.44;4998828;28;20055;-75
2021/03/14 00:42:06;;;;;;;2.72;1.40;;;;;;;5.29;64.65;99176.97;5014528;28;20045;-75
2021/03/14 00:44:31;;;;;;;5.05;1.50;;;;;;;5.20;64.59;99178.47;5005733;28;20476;-73
2021/03/14 00:46:57;;;;;;;4.35;1.40;;;;;;;5.25;64.56;99175.88;5004299;28;20026;-73
2021/03/14 00:49:22;;;;;;;4.97;1.63;;;;;;;5.31;64.21;99191.59;4989968;28;20396;-71
2021/03/14 00:51:49;;;;;;;2.13;1.23;;;;;;;5.30;64.75;99165.31;5010339;28;20679;-71
2021/03/14 00:54:14;;;;;;;2.65;1.42;;;;;;;5.22;64.40;99171.09;5009611;28;20029;-73
2021/03/14 00:56:40;;;;;;;5.57;1.42;;;;;;;5.26;64.76;99185.44;4990127;28;20085;-71
2021/03/14 00:59:06;;;;;;;2.08;1.23;;;;;;;5.26;64.43;99185.44;5000306;28;20030;-72
2021/03/14 01:01:32;;;;;;;3.30;1.20;;;;;;;5.19;64.78;99190.94;5010097;28;20037;-73
2021/03/14 01:03:57;;;;;;;5.20;1.48;;;;;;;5.19;64.94;99196.25;5003884;28;20120;-73
2021/03/14 01:06:23;;;;;;;1.30;1.10;;;;;;;5.14;65.13;99185.59;4991727;28;20026;-74
2021/03/14 01:08:49;;;;;;;2.42;1.70;;;;;;;5.15;65.43;99193.31;4997018;28;20475;-72
2021/03/14 01:11:15;;;;;;;1.63;1.02;;;;;;;5.18;65.00;99192.00;5005670;28;20034;-72
2021/03/14 01:13:40;;;;;;;2.33;1.20;;;;;;;5.18;65.41;99188.53;5001395;28;20526;-70
2021/03/14 01:16:06;;;;;;;4.10;1.33;;;;;;;5.22;65.02;99185.16;5003360;28;20096;-72
2021/03/14 01:18:32;;;;;;;4.47;1.35;;;;;;;5.15;65.68;99203.94;5004872;28;20030;-75
2021/03/14 01:20:57;;;;;;;3.35;1.30;;;;;;;5.07;65.74;99209.69;5001648;28;20025;-75
2021/03/14 01:23:23;;;;;;;2.50;1.15;;;;;;;5.08;66.16;99213.94;5000679;28;20030;-75
2021/03/14 01:25:49;;;;;;;5.47;1.30;;;;;;;5.13;65.84;99218.50;5004067;28;20132;-72
2021/03/14 01:28:14;;;;;;;2.55;1.30;;;;;;;5.08;65.87;99213.94;4984735;28;20054;-74
2021/03/14 01:30:40;;;;;;;2.00;1.05;;;;;;;5.07;66.36;99217.66;4997306;28;20113;-76
2021/03/14 01:33:06;;;;;;;4.38;1.95;;;;;;;5.01;67.14;99218.63;4986324;28;20121;-73
2021/03/14 01:35:31;;;;;;;4.80;1.65;;;;;;;4.97;67.19;99225.50;5001890;28;20162;-69
2021/03/14 01:37:57;;;;;;;2.08;1.30;;;;;;;5.02;66.77;99214.94;4998333;28;20384;-72
2021/03/14 01:40:23;;;;;;;3.85;1.58;;;;;;;4.94;67.59;99220.69;5001671;28;20080;-73
2021/03/14 01:42:49;;;;;;;2.30;1.40;;;;;;;5.01;67.46;99223.13;5001917;28;20034;-73
2021/03/14 01:45:16;;;;;;;3.97;1.55;;;;;;;4.99;67.67;99219.94;5005294;28;20084;-74
2021/03/14 01:47:47;;;;;;;2.50;1.30;;;;;;;4.92;68.35;99230.75;4997886;28;20022;-75
2021/03/14 01:50:15;;;;;;;2.08;1.50;;;;;;;4.85;68.62;99222.19;4993135;28;20030;-72
2021/03/14 01:52:41;;;;;;;1.40;1.30;;;;;;;4.86;68.80;99218.50;5003496;28;20092;-71
2021/03/14 01:55:08;;;;;;;1.80;1.38;;;;;;;4.81;69.28;99213.91;4996090;28;20026;-72
2021/03/14 01:57:34;;;;;;;3.42;2.03;;;;;;;4.80;69.63;99217.59;5004799;28;20028;-71
2021/03/14 02:00:01;;;;;;;3.58;1.70;;;;;;;4.62;70.15;99220.56;4986318;28;20034;-71
2021/03/14 02:02:26;;;;;;;3.65;1.63;;;;;;;4.65;70.03;99213.97;4994832;28;20065;-70
2021/03/14 02:04:53;;;;;;;3.60;1.85;;;;;;;4.52;70.87;99221.25;4992268;28;20068;-74
2021/03/14 02:07:18;;;;;;;1.67;1.35;;;;;;;4.48;71.31;99198.09;5006594;28;20123;-73
2021/03/14 02:09:44;;;;;;;2.13;1.80;;;;;;;4.56;70.73;99208.28;5005871;28;20491;-72
2021/03/14 02:12:15;;;;;;;2.00;1.80;;;;;;;4.45;71.08;99210.00;5005118;28;20053;-72
2021/03/14 02:14:42;;;;;;;2.67;1.30;;;;;;;4.56;70.67;99203.00;5005106;28;20093;-74
2021/03/14 02:17:12;;;;;;;3.50;1.75;;;;;;;4.57;70.30;99212.56;4986266;28;20029;-72
2021/03/14 02:19:45;;;;;;;1.30;1.20;;;;;;;4.61;70.07;99210.19;4996467;28;20029;-74
2021/03/14 02:22:11;;;;;;;2.65;1.95;;;;;;;4.54;70.49;99208.53;4998153;28;20025;-74
2021/03/14 02:24:51;;;;;;;3.92;1.30;;;;;;;4.50;70.83;99218.03;5007280;28;20033;-72
2021/03/14 02:27:17;;;;;;;6.03;1.92;;;;;;;4.47;71.52;99230.97;4991769;28;20559;-72
2021/03/14 02:29:43;;;;;;;4.22;1.83;;;;;;;4.44;71.24;99219.00;5004198;28;20038;-74
2021/03/14 02:32:11;;;;;;;5.10;1.80;;;;;;;4.32;72.80;99212.22;4990841;28;20018;-72
2021/03/14 02:34:41;;;;;;;3.50;2.03;;;;;;;4.28;73.52;99227.78;4997608;28;20110;-74
2021/03/14 02:37:08;;;;;;;4.13;2.17;;;;;;;4.15;74.78;99217.56;4986045;28;20026;-74
2021/03/14 02:39:36;;;;;;;5.80;2.20;;;;;;;4.06;75.27;99224.28;4998069;28;20026;-73
2021/03/14 02:42:04;;;;;;;3.38;1.90;;;;;;;3.94;76.59;99243.72;5004000;28;20506;-70
2021/03/14 02:44:34;;;;;;;5.47;2.00;;;;;;;3.93;76.81;99231.53;4998145;28;20590;-73
2021/03/14 02:47:01;;;;;;;4.32;2.30;;;;;;;3.80;77.62;99268.94;5007508;28;20033;-72
2021/03/14 02:49:27;;;;;;;3.53;1.67;;;;;;;3.74;78.52;99243.41;4995267;28;20492;-71
2021/03/14 02:51:53;;;;;;;2.15;1.50;;;;;;;3.67;78.94;99245.41;4999822;28;20502;-71
2021/03/14 02:54:20;;;;;;;4.55;2.35;;;;;;;3.55;79.84;99258.72;5002387;28;20034;-70
2021/03/14 02:56:49;;;;;;;4.05;2.30;;;;;;;3.60;79.93;99253.53;4997605;28;20038;-71
2021/03/14 02:59:17;;;;;;;4.65;2.00;;;;;;;3.62;80.02;99258.56;4999498;28;20053;-75
2021/03/14 03:01:46;;;;;;;6.15;1.58;;;;;;;3.57;80.20;99264.56;5002825;28;20027;-75
2021/03/14 03:04:13;;;;;;;5.85;3.40;;;;;;;3.49;81.30;99264.97;4996985;28;20157;-72
2021/03/14 03:06:40;;;;;;;3.50;2.22;;;;;;;3.48;81.74;99268.66;4984493;28;20028;-74
2021/03/14 03:09:08;;;;;;;3.55;2.53;;;;;;;3.51;80.74;99280.63;4985019;28;20037;-70
2021/03/14 03:11:34;;;;;;;8.00;2.90;;;;;;;3.49;82.03;99277.41;4997777;28;20026;-72
2021/03/14 03:14:00;;;;;;;4.07;2.35;;;;;;;3.41;82.25;99277.78;5001616;28;20042;-71
2021/03/14 03:16:27;;;;;;;4.22;3.08;;;;;;;3.36;83.02;99280.31;5005673;28;20040;-73
2021/03/14 03:18:52;;;;;;;3.92;3.05;;;;;;;3.38;83.07;99271.09;5014169;28;20395;-73
2021/03/14 03:21:22;;;;;;;3.47;2.50;;;;;;;3.33;83.24;99277.13;4995939;28;20028;-74
2021/03/14 03:23:48;;;;;;;4.65;3.65;;;;;;;3.27;83.35;99286.00;5001471;28;20030;-72
2021/03/14 03:26:15;;;;;;;3.92;2.85;;;;;;;3.20;85.75;99298.56;5007110;28;20392;-73
2021/03/14 03:28:41;;;;;;;2.88;2.60;;;;;;;3.16;85.05;99278.91;5004400;28;20030;-72
2021/03/14 03:31:07;;;;;;;5.30;3.28;;;;;;;3.13;85.70;99297.09;5008374;28;20037;-74
2021/03/14 03:33:33;;;;;;;4.53;2.92;;;;;;;3.12;85.57;99296.31;4981994;28;20030;-72
2021/03/14 03:35:58;;;;;;;4.72;2.85;;;;;;;3.05;86.24;99311.50;5000267;28;20045;-72
2021/03/14 03:38:24;;;;;;;3.28;2.35;;;;;;;3.08;86.07;99297.00;4999530;28;20018;-70
2021/03/14 03:40:51;;;;;;;5.82;2.90;;;;;;;3.07;86.35;99300.69;4998873;28;20164;-71
2021/03/14 03:43:19;;;;;;;5.25;2.95;;;;;;;3.01;86.82;99318.28;4997180;28;20041;-72
2021/03/14 03:45:48;;;;;;;5.03;2.50;;;;;;;2.98;87.10;99316.13;5006230;28;20536;-72
2021/03/14 03:48:20;;;;;;;3.72;2.60;;;;;;;3.07;86.16;99309.44;4996514;28;20074;-74
2021/03/14 03:50:49;;;;;;;7.60;3.78;;;;;;;3.03;86.53;99324.16;5003288;28;20084;-75
2021/03/14 03:53:16;;;;;;;6.90;2.75;;;;;;;3.10;86.31;99335.44;4993048;28;20037;-71
2021/03/14 03:55:43;;;;;;;4.05;2.50;;;;;;;3.00;87.43;99330.72;5002965;28;20026;-72
2021/03/14 03:58:10;;;;;;;5.28;2.83;;;;;;;3.05;87.19;99343.25;5019922;28;20030;-71
2021/03/14 04:00:36;;;;;;;6.30;2.58;;;;;;;2.98;87.71;99353.97;5011031;28;20037;-71
2021/03/14 04:03:03;;;;;;;5.78;2.63;;;;;;;2.95;88.51;99358.91;5011415;28;20034;-71
2021/03/14 04:05:30;;;;;;;2.75;2.35;;;;;;;3.01;88.17;99360.63;5009999;28;20053;-72
2021/03/14 04:07:56;;;;;;;4.95;2.35;;;;;;;2.98;88.31;99363.75;5003875;28;20173;-69
2021/03/14 04:10:23;;;;;;;6.57;2.10;;;;;;;2.96;88.57;99366.63;4995082;28;21024;-69
2021/03/14 04:12:51;;;;;;;4.00;2.00;;;;;;;2.99;87.75;99374.09;4993958;28;20552;-69
2021/03/14 04:15:20;;;;;;;2.00;1.55;;;;;;;2.98;88.20;99363.75;4996320;28;20025;-69
2021/03/14 04:17:46;;;;;;;5.95;2.72;;;;;;;3.02;87.38;99388.69;4993535;28;20035;-69
2021/03/14 04:20:19;;;;;;;1.70;1.40;;;;;;;2.99;88.11;99381.22;4992601;28;20391;-69
2021/03/14 04:22:50;;;;;;;4.25;1.75;;;;;;;2.97;88.04;99380.66;4995466;28;20384;-69
2021/03/14 04:25:16;;;;;;;1.48;0.98;;;;;;;3.01;87.21;99401.13;4976129;28;20061;-69
2021/03/14 04:27:45;;;;;;;1.73;1.20;;;;;;;3.00;87.79;99398.72;4995046;28;20030;-69
2021/03/14 04:30:12;;;;;;;3.53;1.67;;;;;;;2.99;86.72;99397.91;4995007;28;20034;-69
2021/03/14 04:32:38;;;;;;;1.15;1.05;;;;;;;2.96;87.52;99392.28;4992666;28;20030;-69
2021/03/14 04:35:06;;;;;;;2.17;1.33;;;;;;;2.95;87.81;99404.69;4993686;28;20069;-69
2021/03/14 04:37:33;;;;;;;1.02;0.80;;;;;;;3.01;87.06;99409.06;4995410;28;20034;-69
2021/03/14 04:40:00;;;;;;;1.25;0.80;;;;;;;2.98;87.20;99416.66;4991349;28;20038;-69
2021/03/14 04:42:26;;;;;;;1.55;0.90;;;;;;;2.97;87.66;99426.44;4996043;28;20485;-69
2021/03/14 04:44:52;;;;;;;0.93;0.88;;;;;;;2.95;87.60;99428.50;4993903;28;20507;-69
2021/03/14 04:47:18;;;;;;;1.25;0.93;;;;;;;2.93;87.46;99440.38;4994563;28;20034;-69
2021/03/14 04:49:43;;;;;;;1.10;0.80;;;;;;;2.95;87.38;99433.00;4994440;28;20022;-69
2021/03/14 04:52:11;;;;;;;2.75;0.90;;;;;;;2.93;87.71;99435.88;4991359;28;20050;-69
2021/03/14 04:54:38;;;;;;;0.82;0.60;;;;;;;2.97;86.58;99447.59;4995699;28;20112;-69
2021/03/14 04:57:04;;;;;;;1.13;0.65;;;;;;;2.99;86.76;99457.97;4982087;28;20030;-69
2021/03/14 04:59:31;;;;;;;0.82;0.70;;;;;;;2.95;86.92;99464.75;4993206;28;20022;-69
2021/03/14 05:01:59;;;;;;;0.98;0.68;;;;;;;2.94;86.55;99469.22;4992804;28;20030;-69
2021/03/14 05:04:26;;;;;;;0.55;0.55;;;;;;;3.00;86.46;99480.72;4992021;28;20019;-69
2021/03/14 05:06:53;;;;;;;1.08;0.70;;;;;;;2.99;86.02;99479.94;4997149;28;20034;-68
2021/03/14 05:09:18;;;;;;;1.63;0.40;;;;;;;3.02;86.18;99491.88;4994000;28;20483;-69
2021/03/14 05:11:45;;;;;;;0.77;0.75;;;;;;;3.02;85.94;99497.19;4990665;28;20030;-69
2021/03/14 05:14:13;;;;;;;0.60;0.60;;;;;;;3.04;86.06;99505.69;4998823;28;20446;-69
2021/03/14 05:16:42;;;;;;;0.73;0.63;;;;;;;3.02;86.10;99505.13;4996414;28;20026;-69
2021/03/14 05:19:08;;;;;;;0.50;0.50;;;;;;;3.00;86.57;99515.13;4989705;28;20030;-69
2021/03/14 05:21:35;;;;;;;0.95;0.55;;;;;;;3.04;86.20;99532.16;4991159;28;20465;-69
2021/03/14 05:24:01;;;;;;;0.40;0.40;;;;;;;3.03;86.05;99525.25;4994491;28;20022;-68
2021/03/14 05:26:28;;;;;;;0.88;0.60;;;;;;;3.07;86.01;99526.44;4993928;28;20026;-68
2021/03/14 05:28:56;;;;;;;0.70;0.70;;;;;;;3.02;85.92;99535.03;4992210;28;20029;-68
2021/03/14 05:31:34;;;;;;;0.70;0.70;;;;;;;3.02;86.21;99542.97;4995073;28;20038;-69
2021/03/14 05:34:09;;;;;;;2.58;0.60;;;;;;;3.08;85.97;99541.28;4993331;28;20505;-68
2021/03/14 05:36:35;;;;;;;;;;;;;;;3.02;86.26;99553.56;4993197;28;20294;-69
2021/03/14 05:39:03;;;;;;;1.25;0.77;;;;;;;3.01;86.62;99554.59;4991842;28;19920;-68
2021/03/14 05:41:30;;;;;;;0.40;0.40;;;;;;;3.04;86.65;99559.41;4994153;28;20759;-68
2021/03/14 05:43:56;;;;;;;1.02;0.80;;;;;;;3.01;86.91;99569.66;4996383;28;20066;-69
2021/03/14 05:46:22;;;;;;;0.60;0.60;;;;;;;3.04;87.08;99574.50;4992730;28;20033;-69
2021/03/14 05:48:48;;;;;;;0.50;0.50;;;;;;;3.18;86.28;99570.63;4992584;28;20393;-69
2021/03/14 05:51:22;;;;;;;0.70;0.70;;;;;;;3.06;87.23;99577.75;4996893;28;20076;-69
2021/03/14 05:53:51;;;;;;;0.80;0.70;;;;;;;3.14;86.93;99589.84;4998854;28;20037;-69
2021/03/14 05:56:17;;;;;;;1.17;0.82;;;;;;;3.11;87.22;99596.38;4991451;28;20109;-69
2021/03/14 05:58:44;;;;;;;1.20;0.68;;;;;;;3.03;87.60;99591.41;4994783;28;20105;-69
2021/03/14 06:01:13;;;;;;;0.63;0.60;;;;;;;3.15;87.06;99602.84;4990948;28;20105;-68
2021/03/14 06:03:40;;;;;;;0.95;0.68;;;;;;;3.17;86.98;99614.00;4995783;28;20030;-69
2021/03/14 06:06:11;;;;;;;0.68;0.68;;;;;;;3.13;87.84;99607.56;4997526;28;20108;-69
2021/03/14 06:08:37;;;;;;;0.95;0.85;;;;;;;3.16;87.64;99615.03;4998655;28;20037;-69
2021/03/14 06:11:05;;;;;;;2.25;0.88;;;;;;;3.16;87.74;99630.91;4991277;28;20026;-69
2021/03/14 06:13:32;;;;;;;0.95;0.88;;;;;;;3.16;87.68;99628.28;4990473;28;20030;-69
2021/03/14 06:15:58;;;;;;;0.73;0.63;;;;;;;3.18;87.74;99643.91;4991370;28;20022;-69
2021/03/14 06:18:25;;;;;;;0.75;0.70;;;;;;;3.28;87.38;99644.19;4976872;28;20488;-68
2021/03/14 06:20:50;;;;;;;1.13;0.77;;;;;;;3.14;88.65;99648.06;4993493;28;20088;-69
2021/03/14 06:23:17;;;;;;;2.55;0.85;;;;;;;3.16;88.63;99661.88;4993512;28;20045;-69
2021/03/14 06:25:48;;;;;;;1.42;0.73;;;;;;;3.16;89.12;99670.63;4991913;28;20129;-69
2021/03/14 06:28:15;;;;;;;1.08;0.93;;;;;;;3.16;89.52;99675.91;4992577;28;20030;-69
2021/03/14 06:30:43;;;;;;;3.05;1.00;;;;;;;3.14;90.00;99670.03;4988665;28;22053;-69
2021/03/14 06:33:12;;;;;;;2.17;1.15;;;;;;;3.12;90.23;99676.59;4988371;28;20503;-69
2021/03/14 06:35:54;;;;;;;1.65;1.08;;;;;;;3.10;90.77;99673.38;4978863;28;20077;-69
2021/03/14 06:38:35;;;;;;;2.15;1.20;;;;;;;3.11;91.48;99681.06;4992874;28;20030;-69
2021/03/14 06:41:06;;;;;;;3.33;1.23;;;;;;;3.11;90.93;99686.38;4991542;28;20026;-69
2021/03/14 06:43:39;;;;;;;1.55;1.23;;;;;;;3.12;90.55;99697.75;4994507;28;20057;-69
2021/03/14 06:46:30;;;;;;;1.75;1.20;;;;;;;3.17;90.46;99701.34;4997138;28;20030;-69
2021/03/14 06:49:17;;;;;;;1.92;1.30;;;;;;;3.26;89.67;99712.44;4989713;28;20508;-69
2021/03/14 06:51:50;;;;;;;1.10;0.88;;;;;;;3.33;88.67;99708.66;4974586;28;20523;-69
2021/03/14 06:54:24;;;;;;;3.30;1.20;;;;;;;3.33;88.13;99726.38;4988586;28;20034;-69
2021/03/14 06:57:17;;;;;;;1.60;1.00;;;;;;;3.34;88.15;99734.09;4996680;28;20044;-69
2021/03/14 06:59:54;;;;;;;0.95;0.90;;;;;;;3.36;87.65;99746.28;4998481;28;20032;-69
2021/03/14 07:02:28;;;;;;;3.03;1.13;;;;;;;3.47;87.03;99753.47;4996064;28;20107;-69
2021/03/14 07:04:56;;;;;;;0.97;0.70;;;;;;;3.54;86.64;99757.63;4993381;28;20037;-69
2021/03/14 07:07:30;;;;;;;0.90;0.90;;;;;;;3.66;85.74;99751.56;4994195;28;20026;-68
2021/03/14 07:10:04;;;;;;;2.65;1.17;;;;;;;3.66;85.76;99772.78;4993250;28;20038;-69
2021/03/14 07:12:38;;;;;;;0.70;0.65;;;;;;;3.76;85.28;99763.22;4977584;28;20193;-69
2021/03/14 07:15:20;;;;;;;0.93;0.82;;;;;;;3.75;84.63;99784.63;4990939;28;20118;-69
2021/03/14 07:17:53;;;;;;;2.08;1.13;;;;;;;3.92;84.20;99783.75;4992669;28;20040;-69
2021/03/14 07:20:25;;;;;;;1.00;0.90;;;;;;;3.78;83.42;99790.31;4994357;28;20731;-69
2021/03/14 07:22:56;;;;;;;0.90;0.80;;;;;;;3.75;83.56;99801.34;4993324;28;20081;-69
2021/03/14 07:25:22;;;;;;;4.35;1.33;;;;;;;3.74;83.13;99802.38;4991288;28;20030;-69
2021/03/14 07:27:49;;;;;;;1.67;1.15;;;;;;;3.72;83.50;99815.03;4990285;28;20582;-69
2021/03/14 07:30:16;;;;;;;1.88;1.20;;;;;;;3.81;83.13;99808.41;4994540;28;20037;-69
2021/03/14 07:32:43;;;;;;;1.95;1.50;;;;;;;3.75;83.55;99816.44;4972352;28;20049;-68
2021/03/14 07:35:09;;;;;;;0.80;0.80;;;;;;;3.80;82.91;99825.34;4993541;28;20400;-69
2021/03/14 07:37:34;;;;;;;1.10;1.00;;;;;;;3.80;83.38;99822.69;4986501;28;20022;-69
2021/03/14 07:40:00;;;;;;;2.05;1.13;;;;;;;3.82;84.06;99831.22;4993667;28;20094;-69
2021/03/14 07:42:26;;;;;;;1.15;0.98;;;;;;;3.89;83.79;99852.31;4993326;28;20044;-69
2021/03/14 07:44:51;;;;;;;2.72;1.30;;;;;;;3.92;83.35;99847.34;4981829;28;20033;-69
2021/03/14 07:47:20;;;;;;;1.58;1.30;;;;;;;3.89;82.88;99847.81;4992884;28;20077;-69
2021/03/14 07:49:53;;;;;;;1.10;1.00;;;;;;;3.95;83.44;99856.72;4991810;28;20419;-69
2021/03/14 07:52:40;;;;;;;1.10;1.00;;;;;;;3.92;82.46;99867.75;4990612;28;20026;-68
2021/03/14 07:55:11;;;;;;;1.75;1.10;;;;;;;3.97;82.50;99873.22;4995409;28;20030;-69
2021/03/14 07:57:43;;;;;;;1.10;0.93;;;;;;;3.90;83.45;99869.81;4996607;28;20380;-69
2021/03/14 08:00:34;;;;;;;0.98;0.80;;;;;;;3.89;83.46;99884.91;4997654;28;20057;-69
2021/03/14 08:03:10;;;;;;;1.23;0.98;;;;;;;3.85;83.42;99894.34;4992243;28;20029;-69
2021/03/14 08:05:38;;;;;;;1.67;1.00;;;;;;;3.86;83.82;99901.28;4995075;28;20037;-69
2021/03/14 08:08:09;;;;;;;1.35;0.85;;;;;;;3.98;83.43;99889.91;4992717;28;20033;-70
2021/03/14 08:10:45;;;;;;;1.75;1.15;;;;;;;3.96;83.66;99907.88;4993872;28;20030;-70
2021/03/14 08:13:37;;;;;;;1.48;1.00;;;;;;;4.03;82.86;99920.00;4999599;28;20533;-70
2021/03/14 08:16:08;;;;;;;3.17;1.20;;;;;;;4.07;82.31;99925.66;4977761;28;20046;-70
2021/03/14 08:18:41;;;;;;;1.27;1.10;;;;;;;4.12;82.84;99928.44;4989548;28;20384;-71
2021/03/14 08:21:21;;;;;;;2.90;1.20;;;;;;;4.07;81.51;99933.63;4994789;28;20027;-70
2021/03/14 08:23:52;;;;;;;1.45;1.35;;;;;;;4.09;82.75;99944.78;4992034;28;20096;-71
2021/03/14 08:26:36;;;;;;;2.20;1.55;;;;;;;4.10;81.55;99955.16;5000210;28;20026;-70
2021/03/14 08:29:05;;;;;;;1.35;1.25;;;;;;;4.03;82.11;99959.75;4998030;28;20040;-70
2021/03/14 08:31:48;;;;;;;3.78;1.40;;;;;;;4.08;83.15;99967.03;4996385;28;20037;-70
2021/03/14 08:34:43;;;;;;;1.77;1.20;;;;;;;4.06;83.74;99961.97;4983090;28;20030;-71
2021/03/14 08:37:26;;;;;;;1.77;1.30;;;;;;;4.07;83.23;99978.69;4996057;28;20026;-70
2021/03/14 08:40:05;;;;;;;2.97;1.40;;;;;;;4.12;83.47;99974.31;4976883;28;20035;-70
2021/03/14 08:42:55;;;;;;;2.00;1.38;;;;;;;4.12;83.56;99981.44;4996270;28;20034;-71
2021/03/14 08:45:23;;;;;;;2.38;1.40;;;;;;;4.18;83.38;99993.84;4978140;28;20049;-71
2021/03/14 08:47:49;;;;;;;2.35;1.75;;;;;;;4.13;84.98;99996.31;5000606;28;20512;-71
2021/03/14 08:50:15;;;;;;;3.88;1.67;;;;;;;3.97;85.66;99994.31;5002753;28;20052;-71
2021/03/14 08:52:40;;;;;;;3.72;2.20;;;;;;;3.96;86.67;100000.66;5000122;28;20033;-71
2021/03/14 08:55:06;;;;;;;2.20;1.52;;;;;;;4.01;85.49;100004.25;5000027;28;20026;-70
2021/03/14 08:57:32;;;;;;;3.03;1.58;;;;;;;4.05;84.24;100009.91;5001797;28;20026;-70
2021/03/14 09:00:00;;;;;;;2.35;1.88;;;;;;;4.14;83.83;100019.19;4999724;28;20037;-71
2021/03/14 09:02:26;;;;;;;2.28;1.60;;;;;;;4.17;83.09;100024.03;5001499;28;20030;-70
2021/03/14 09:04:53;;;;;;;3.13;2.00;;;;;;;4.18;82.32;100023.00;5002801;28;20176;-71
2021/03/14 09:07:19;;;;;;;1.65;1.25;;;;;;;4.30;82.18;100031.78;5003407;28;20435;-70
2021/03/14 09:09:45;;;;;;;1.10;1.00;;;;;;;4.35;81.86;100044.41;4995747;28;20026;-72
2021/03/14 09:12:15;;;;;;;1.65;1.30;;;;;;;4.42;81.70;100040.63;4997705;28;20025;-70
2021/03/14 09:14:43;;;;;;;2.28;1.35;;;;;;;4.50;81.26;100035.00;4997826;28;20397;-71
2021/03/14 09:17:19;;;;;;;1.23;0.90;;;;;;;4.51;79.80;100057.84;5005605;28;20057;-70
2021/03/14 09:19:50;;;;;;;1.77;1.20;;;;;;;4.48;80.92;100062.78;5000968;28;20041;-70
2021/03/14 09:22:19;;;;;;;2.95;1.20;;;;;;;4.59;80.76;100066.53;4989134;28;20116;-71
2021/03/14 09:24:50;;;;;;;2.00;1.33;;;;;;;4.72;79.50;100063.69;4999454;28;20025;-71
2021/03/14 09:27:25;;;;;;;2.35;1.52;;;;;;;5.04;77.62;100066.91;4999657;28;20277;-70
2021/03/14 09:29:59;;;;;;;1.77;1.48;;;;;;;5.41;75.83;100078.13;4993541;28;20029;-72
2021/03/14 09:32:36;;;;;;;2.30;1.20;;;;;;;5.60;75.88;100076.19;4998162;28;20492;-71
2021/03/14 09:35:15;;;;;;;2.75;1.50;;;;;;;5.40;76.20;100076.53;5001671;28;20663;-70
2021/03/14 09:37:41;;;;;;;2.17;1.52;;;;;;;5.29;75.67;100087.94;5004707;28;20033;-70
2021/03/14 09:40:21;;;;;;;1.55;1.33;;;;;;;5.29;75.95;100093.25;4994942;28;20018;-71
2021/03/14 09:42:49;;;;;;;1.90;1.30;;;;;;;5.15;76.36;100104.06;4981820;28;20064;-71
2021/03/14 09:45:16;;;;;;;1.38;1.05;;;;;;;5.24;77.29;100101.09;4998177;28;20026;-71
2021/03/14 09:48:11;;;;;;;2.40;1.00;;;;;;;5.04;76.93;100117.34;4997037;28;20018;-71
2021/03/14 09:50:46;;;;;;;1.90;1.38;;;;;;;5.09;75.78;100112.97;5003007;28;20037;-71
2021/03/14 09:53:12;;;;;;;1.48;1.27;;;;;;;5.30;75.40;100118.78;4996091;28;20070;-70
2021/03/14 09:55:39;;;;;;;2.88;1.30;;;;;;;5.59;75.34;100114.41;4985330;28;20419;-71
2021/03/14 09:58:10;;;;;;;12.05;5.60;;;;;;;5.44;75.27;100126.31;4998269;28;20033;-71
2021/03/14 10:00:36;;;;;;;7.20;3.05;;;;;;;5.36;75.24;100126.63;4995327;28;20022;-71
2021/03/14 10:03:05;;;;;;;3.28;2.30;;;;;;;5.21;75.35;100130.78;4996516;28;20045;-71
2021/03/14 10:05:41;;;;;;;3.47;1.42;;;;;;;5.35;74.80;100137.47;5009096;28;20033;-71
2021/03/14 10:08:09;;;;;;;0.98;0.82;;;;;;;5.35;74.27;100143.59;5021930;22;20510;-84
2021/03/14 10:10:38;;;;;;;1.65;1.17;;;;;;;5.46;74.05;100137.50;5004099;28;20026;-84
2021/03/14 10:13:08;;;;;;;2.53;1.08;;;;;;;5.74;72.57;100146.66;5009544;28;20041;-84
2021/03/14 10:15:34;;;;;;;1.20;1.05;;;;;;;5.70;72.43;100161.44;4999090;28;20487;-86
2021/03/14 10:18:02;;;;;;;1.00;0.88;;;;;;;5.84;70.85;100162.84;5008817;28;20033;-85
2021/03/14 10:20:28;;;;;;;1.85;1.55;;;;;;;5.92;70.70;100165.16;5027936;23;20477;-75
2021/03/14 10:22:58;;;;;;;1.42;1.20;;;;;;;6.14;70.26;100172.59;5016029;28;20137;-75
2021/03/14 10:25:28;;;;;;;2.45;1.40;;;;;;;6.33;69.43;100166.09;4997410;28;20030;-75
2021/03/14 10:28:04;;;;;;;1.55;1.45;;;;;;;5.91;67.76;100182.16;4998296;28;20123;-75
2021/03/14 10:30:30;;;;;;;1.15;1.02;;;;;;;6.03;67.99;100182.19;4997951;28;20109;-74
2021/03/14 10:32:55;;;;;;;1.27;1.15;;;;;;;6.07;68.27;100184.13;4994407;28;20457;-74
2021/03/14 10:35:21;;;;;;;1.50;1.02;;;;;;;6.33;67.78;100185.50;4995222;28;20029;-75
2021/03/14 10:37:46;;;;;;;1.90;1.05;;;;;;;6.26;66.93;100203.44;5001864;28;20038;-75
2021/03/14 10:40:18;;;;;;;2.00;1.35;;;;;;;6.24;68.33;100202.84;5001750;28;20093;-75
2021/03/14 10:42:47;;;;;;;1.98;1.10;;;;;;;5.85;69.62;100227.47;4998673;28;20027;-75
2021/03/14 10:45:13;;;;;;;1.25;1.08;;;;;;;5.72;73.98;100231.94;4997099;28;20651;-75
2021/03/14 10:47:40;;;;;;;1.35;1.20;;;;;;;5.03;79.29;100251.94;4999417;28;20026;-75
2021/03/14 10:50:20;;;;;;;15.18;8.13;;;;;;;4.53;82.65;100262.72;4996588;28;20034;-75
2021/03/14 10:53:15;;;;;;;2.60;1.70;;;;;;;4.37;83.38;100260.63;4995963;28;20042;-74
2021/03/14 10:55:43;;;;;;;2.78;2.17;;;;;;;4.47;85.99;100284.78;5010261;28;20034;-74
2021/03/14 10:58:17;;;;;;;3.70;2.13;;;;;;;4.50;86.25;100284.38;4994349;28;20034;-74
2021/03/14 11:00:47;;;;;;;2.60;1.70;;;;;;;4.79;86.00;100295.28;4994757;28;20696;-74
2021/03/14 11:03:27;;;;;;;4.78;2.10;;;;;;;4.98;85.00;100290.78;4997535;28;20408;-75
2021/03/14 11:06:06;;;;;;;2.55;1.70;;;;;;;5.06;84.06;100304.59;4988873;28;20041;-74
2021/03/14 11:09:04;;;;;;;4.22;2.40;;;;;;;5.01;84.45;100301.78;4994037;28;20049;-74
2021/03/14 11:11:41;;;;;;;3.47;2.03;;;;;;;4.91;81.72;100312.13;4996579;28;20480;-75
2021/03/14 11:14:38;;;;;;;3.47;1.83;;;;;;;5.10;82.23;100305.78;4997483;28;20029;-74
2021/03/14 11:17:18;;;;;;;4.32;2.65;;;;;;;5.80;80.69;100309.75;4998880;28;20117;-74
2021/03/14 11:19:45;;;;;;;4.47;2.17;;;;;;;5.75;78.91;100313.91;4992927;28;20491;-75
2021/03/14 11:22:15;;;;;;;3.10;2.20;;;;;;;5.46;77.47;100320.03;4994915;28;20034;-75
2021/03/14 11:24:42;;;;;;;4.43;2.50;;;;;;;5.51;78.32;100328.13;4996547;28;20556;-75
2021/03/14 11:27:08;;;;;;;8.75;5.28;;;;;;;5.51;77.94;100330.78;4996095;28;20041;-75
2021/03/14 11:29:34;;;;;;;20.33;9.65;;;;;;;5.40;77.47;100336.88;5001587;28;20057;-75
2021/03/14 11:32:00;;;;;;;48.42;17.90;;;;;;;5.49;77.65;100351.47;5002027;28;20033;-75
2021/03/14 11:34:25;;;;;;;22.52;8.35;;;;;;;5.59;77.63;100351.75;5002879;28;20026;-75
2021/03/14 11:36:51;;;;;;;4.50;2.90;;;;;;;5.37;71.48;100340.75;5003096;28;20515;-75
2021/03/14 11:39:17;;;;;;;3.58;1.98;;;;;;;5.27;73.70;100358.28;4999253;28;20616;-75
2021/03/14 11:41:44;;;;;;;3.33;1.88;;;;;;;5.36;71.33;100356.94;5003191;28;20113;-76
2021/03/14 11:44:10;;;;;;;4.60;3.10;;;;;;;5.24;71.15;100358.72;5003908;28;20730;-76
2021/03/14 11:46:36;;;;;;;3.45;2.15;;;;;;;5.44;70.34;100362.78;5000735;28;20028;-76
2021/03/14 11:49:02;;;;;;;5.53;2.35;;;;;;;5.49;65.98;100374.56;5000157;28;20029;-76